121520Z 32005KT CAVOK M08/M10 Q1033 RWY 14 RIME OR FROST 51-100 PCT FCT 0.65=

121430Z 1215/1224 32005KT CAVOK=

Aktuell METAR/TAF ESNU/UME

Källa: Luftfartsverket (aro.lfv.se)